createdAt,value
2023-04-16T00:01:35.799Z,9.20
2023-04-16T00:04:03.266Z,9.10
2023-04-16T00:07:46.442Z,9.10
2023-04-16T00:10:13.881Z,9.10
2023-04-16T00:12:41.065Z,9.00
2023-04-16T00:15:08.202Z,9.00
2023-04-16T00:17:34.964Z,8.90
2023-04-16T00:20:01.880Z,8.90
2023-04-16T00:22:28.620Z,9.00
2023-04-16T00:24:55.427Z,9.00
2023-04-16T00:27:22.229Z,9.00
2023-04-16T00:29:49.020Z,9.10
2023-04-16T00:32:16.279Z,9.10
2023-04-16T00:34:43.048Z,9.10
2023-04-16T00:37:09.810Z,9.10
2023-04-16T00:39:36.581Z,9.20
2023-04-16T00:42:03.450Z,9.20
2023-04-16T00:44:30.453Z,9.20
2023-04-16T00:46:57.750Z,9.20
2023-04-16T00:49:25.295Z,9.30
2023-04-16T00:51:52.148Z,9.40
2023-04-16T00:54:19.732Z,9.40
2023-04-16T00:56:47.007Z,9.50
2023-04-16T00:59:15.366Z,9.60
2023-04-16T01:01:42.251Z,9.60
2023-04-16T01:04:11.145Z,9.60
2023-04-16T01:06:38.586Z,9.60
2023-04-16T01:09:05.810Z,9.60
2023-04-16T01:11:32.791Z,9.60
2023-04-16T01:13:59.626Z,9.60
2023-04-16T01:16:26.783Z,9.60
2023-04-16T01:18:53.634Z,9.60
2023-04-16T01:21:20.587Z,9.60
2023-04-16T01:23:47.259Z,9.50
2023-04-16T01:26:14.096Z,9.50
2023-04-16T01:28:41.903Z,9.50
2023-04-16T01:31:08.670Z,9.50
2023-04-16T01:34:05.248Z,9.40
2023-04-16T01:36:32.852Z,9.40
2023-04-16T01:38:59.625Z,9.50
2023-04-16T01:41:26.852Z,9.50
2023-04-16T01:43:53.616Z,9.50
2023-04-16T01:46:33.233Z,9.50
2023-04-16T01:49:01.546Z,9.50
2023-04-16T01:51:28.550Z,9.40
2023-04-16T01:53:55.931Z,9.30
2023-04-16T01:56:22.691Z,9.30
2023-04-16T01:58:49.728Z,9.30
2023-04-16T02:01:18.316Z,9.40
2023-04-16T02:03:47.137Z,9.40
2023-04-16T02:06:15.471Z,9.50
2023-04-16T02:08:42.273Z,9.50
2023-04-16T02:11:09.237Z,9.60
2023-04-16T02:13:46.946Z,9.60
2023-04-16T02:16:14.562Z,9.60
2023-04-16T02:18:49.514Z,9.60
2023-04-16T02:21:18.194Z,9.60
2023-04-16T02:23:47.754Z,9.60
2023-04-16T02:26:14.556Z,9.60
2023-04-16T02:28:41.619Z,9.50
2023-04-16T02:31:11.095Z,9.50
2023-04-16T02:33:43.403Z,9.40
2023-04-16T02:36:11.235Z,9.30
2023-04-16T02:38:38.131Z,9.30
2023-04-16T02:41:05.228Z,9.30
2023-04-16T02:43:33.709Z,9.30
2023-04-16T02:46:01.295Z,9.30
2023-04-16T02:48:28.152Z,9.40
2023-04-16T02:50:54.908Z,9.40
2023-04-16T02:53:21.788Z,9.40
2023-04-16T02:55:55.494Z,9.50
2023-04-16T02:58:24.151Z,9.50
2023-04-16T03:00:52.015Z,9.60
2023-04-16T03:03:19.128Z,9.60
2023-04-16T03:05:45.975Z,9.60
2023-04-16T03:08:12.941Z,9.50
2023-04-16T03:10:40.068Z,9.50
2023-04-16T03:13:07.123Z,9.50
2023-04-16T03:15:33.983Z,9.50
2023-04-16T03:18:00.803Z,9.50
2023-04-16T03:20:28.070Z,9.60
2023-04-16T03:22:55.925Z,9.50
2023-04-16T03:25:22.710Z,9.50
2023-04-16T03:27:49.543Z,9.50
2023-04-16T03:30:16.977Z,9.50
2023-04-16T03:32:44.082Z,9.40
2023-04-16T03:35:12.570Z,9.40
2023-04-16T03:37:39.379Z,9.40
2023-04-16T03:40:07.258Z,9.50
2023-04-16T03:42:34.551Z,9.50
2023-04-16T03:45:02.481Z,9.50
2023-04-16T03:47:29.397Z,9.50
2023-04-16T03:49:59.603Z,9.50
2023-04-16T03:52:28.128Z,9.50
2023-04-16T03:54:55.178Z,9.60
2023-04-16T03:57:26.219Z,9.60
2023-04-16T03:59:56.470Z,9.50
2023-04-16T04:02:24.422Z,9.50
2023-04-16T04:04:51.624Z,9.40
2023-04-16T04:07:18.609Z,9.40
2023-04-16T04:09:45.315Z,9.40
2023-04-16T04:12:12.078Z,9.40
2023-04-16T04:14:40.826Z,9.40
2023-04-16T04:17:08.577Z,9.40
2023-04-16T04:19:35.360Z,9.30
2023-04-16T04:22:03.379Z,9.30
2023-04-16T04:24:30.151Z,9.30
2023-04-16T04:26:58.185Z,9.20
2023-04-16T04:29:25.030Z,9.20
2023-04-16T04:31:52.017Z,9.20
2023-04-16T04:34:19.211Z,9.30
2023-04-16T04:36:46.312Z,9.30
2023-04-16T04:39:14.236Z,9.40
2023-04-16T04:41:43.528Z,9.50
2023-04-16T04:44:10.642Z,9.50
2023-04-16T04:46:37.486Z,9.60
2023-04-16T04:49:04.452Z,9.60
2023-04-16T04:51:31.825Z,9.50
2023-04-16T04:53:58.863Z,9.50
2023-04-16T04:56:25.627Z,9.50
2023-04-16T04:58:52.381Z,9.50
2023-04-16T05:01:20.438Z,9.50
2023-04-16T05:03:47.364Z,9.50
2023-04-16T05:06:14.200Z,9.60
2023-04-16T05:08:40.950Z,9.60
2023-04-16T05:11:07.756Z,9.60
2023-04-16T05:13:34.520Z,9.60
2023-04-16T05:16:01.352Z,9.60
2023-04-16T05:18:28.088Z,9.50
2023-04-16T05:20:55.947Z,9.50
2023-04-16T05:23:22.745Z,9.50
2023-04-16T05:25:49.511Z,9.50
2023-04-16T05:28:16.251Z,9.60
2023-04-16T05:30:43.084Z,9.60
2023-04-16T05:33:09.832Z,9.60
2023-04-16T05:35:36.600Z,9.60
2023-04-16T05:38:04.401Z,9.60
2023-04-16T05:40:31.937Z,9.60
2023-04-16T05:42:58.687Z,9.70
2023-04-16T05:45:27.485Z,9.80
2023-04-16T05:47:54.986Z,9.80
2023-04-16T05:50:21.854Z,9.90
2023-04-16T05:52:48.590Z,10.00
2023-04-16T05:55:15.374Z,10.00
2023-04-16T05:57:42.124Z,10.00
2023-04-16T06:00:09.294Z,10.00
2023-04-16T06:02:42.071Z,10.00
2023-04-16T06:05:09.202Z,10.00
2023-04-16T06:07:36.044Z,9.90
2023-04-16T06:10:02.824Z,9.80
2023-04-16T06:12:29.686Z,9.80
2023-04-16T06:14:56.422Z,9.70
2023-04-16T06:17:23.283Z,9.70
2023-04-16T06:19:50.058Z,9.70
2023-04-16T06:22:16.810Z,9.80
2023-04-16T06:24:43.741Z,9.80
2023-04-16T06:27:10.523Z,9.80
2023-04-16T06:29:41.616Z,9.80
2023-04-16T06:32:08.812Z,9.80
2023-04-16T06:34:35.857Z,9.80
2023-04-16T06:37:02.669Z,9.80
2023-04-16T06:39:29.429Z,9.80
2023-04-16T06:41:56.194Z,9.80
2023-04-16T06:44:23.135Z,9.80
2023-04-16T06:46:51.003Z,9.90
2023-04-16T06:49:17.864Z,9.90
2023-04-16T06:51:44.705Z,10.00
2023-04-16T06:54:11.428Z,10.00
2023-04-16T06:56:38.195Z,10.00
2023-04-16T06:59:05.023Z,10.00
2023-04-16T07:01:31.860Z,10.10
2023-04-16T07:03:59.029Z,10.10
2023-04-16T07:06:27.195Z,10.10
2023-04-16T07:08:53.955Z,10.00
2023-04-16T07:11:21.087Z,10.00
2023-04-16T07:13:47.940Z,10.00
2023-04-16T07:16:14.733Z,10.00
2023-04-16T07:18:41.515Z,10.10
2023-04-16T07:21:08.385Z,10.20
2023-04-16T07:23:35.291Z,10.30
2023-04-16T07:26:02.003Z,10.30
2023-04-16T07:28:28.717Z,10.40
2023-04-16T07:30:55.544Z,10.50
2023-04-16T07:33:22.267Z,10.50
2023-04-16T07:35:49.109Z,10.50
2023-04-16T07:38:16.463Z,10.50
2023-04-16T07:40:43.232Z,10.60
2023-04-16T07:43:10.620Z,10.60
2023-04-16T07:45:37.396Z,10.60
2023-04-16T07:48:05.241Z,10.70
2023-04-16T07:50:31.999Z,10.90
2023-04-16T07:52:58.717Z,11.10
2023-04-16T07:55:25.758Z,11.20
2023-04-16T07:57:52.489Z,11.30
2023-04-16T08:00:19.362Z,11.40
2023-04-16T08:02:46.482Z,11.60
2023-04-16T08:05:13.492Z,11.70
2023-04-16T08:07:40.580Z,11.80
2023-04-16T08:10:08.185Z,11.80
2023-04-16T08:12:35.810Z,11.90
2023-04-16T08:15:02.703Z,11.90
2023-04-16T08:17:30.150Z,11.90
2023-04-16T08:19:57.085Z,12.00
2023-04-16T08:22:23.976Z,12.00
2023-04-16T08:24:50.717Z,12.10
2023-04-16T08:27:19.393Z,12.00
2023-04-16T08:29:47.933Z,11.90
2023-04-16T08:32:14.767Z,12.10
2023-04-16T08:34:42.228Z,12.30
2023-04-16T08:37:09.373Z,12.60
2023-04-16T08:39:36.336Z,12.80
2023-04-16T08:42:06.062Z,13.00
2023-04-16T08:44:35.320Z,13.10
2023-04-16T08:47:02.804Z,13.20
2023-04-16T08:49:29.829Z,13.40
2023-04-16T08:51:57.113Z,13.50
2023-04-16T08:54:56.709Z,13.50
2023-04-16T08:57:26.794Z,13.50
2023-04-16T08:59:55.879Z,13.60
2023-04-16T09:02:23.570Z,13.50
2023-04-16T09:04:52.190Z,13.50
2023-04-16T09:07:20.670Z,13.50
2023-04-16T09:09:49.975Z,13.50
2023-04-16T09:12:17.615Z,13.40
2023-04-16T09:14:49.442Z,13.40
2023-04-16T09:17:16.799Z,13.40
2023-04-16T09:19:44.000Z,13.40
2023-04-16T09:22:11.386Z,13.30
2023-04-16T09:24:38.652Z,13.30
2023-04-16T09:27:06.408Z,13.20
2023-04-16T09:29:36.131Z,13.20
2023-04-16T09:32:08.234Z,13.20
2023-04-16T09:34:54.403Z,13.20
2023-04-16T09:37:21.305Z,13.30
2023-04-16T09:39:59.143Z,13.40
2023-04-16T09:42:31.735Z,13.50
2023-04-16T09:45:01.376Z,13.60
2023-04-16T09:47:42.956Z,13.60
2023-04-16T09:50:16.468Z,13.60
2023-04-16T09:52:48.095Z,13.60
2023-04-16T09:55:15.345Z,13.60
2023-04-16T09:57:42.099Z,13.70
2023-04-16T10:00:10.457Z,13.70
2023-04-16T10:02:41.981Z,13.80
2023-04-16T10:05:09.653Z,13.70
2023-04-16T10:07:37.352Z,13.70
2023-04-16T10:10:05.108Z,13.80
2023-04-16T10:12:33.125Z,13.80
2023-04-16T10:14:59.919Z,13.70
2023-04-16T10:17:29.933Z,13.60
2023-04-16T10:19:58.517Z,13.60
2023-04-16T10:22:26.241Z,13.50
2023-04-16T10:24:53.939Z,13.40
2023-04-16T10:27:21.026Z,13.40
2023-04-16T10:29:48.776Z,13.30
2023-04-16T10:32:17.271Z,13.30
2023-04-16T10:34:44.316Z,13.20
2023-04-16T10:37:11.058Z,13.10
2023-04-16T10:39:38.461Z,13.00
2023-04-16T10:42:10.557Z,13.00
2023-04-16T10:44:37.903Z,12.90
2023-04-16T10:47:11.918Z,12.90
2023-04-16T10:49:38.826Z,12.90
2023-04-16T10:52:13.555Z,13.00
2023-04-16T10:54:41.070Z,13.00
2023-04-16T10:57:17.851Z,13.00
2023-04-16T10:59:45.970Z,13.00
2023-04-16T11:02:20.664Z,13.00
2023-04-16T11:04:49.543Z,13.10
2023-04-16T11:07:21.549Z,13.00
2023-04-16T11:09:54.096Z,13.00
2023-04-16T11:12:38.103Z,13.10
2023-04-16T11:15:12.943Z,13.10
2023-04-16T11:17:51.674Z,13.10
2023-04-16T11:20:26.527Z,13.10
2023-04-16T11:22:54.847Z,13.10
2023-04-16T11:25:26.295Z,13.10
2023-04-16T11:27:53.849Z,13.10
2023-04-16T11:30:38.240Z,13.00
2023-04-16T11:33:07.572Z,13.00
2023-04-16T11:35:34.321Z,13.00
2023-04-16T11:38:01.176Z,13.00
2023-04-16T11:40:31.751Z,13.00
2023-04-16T11:43:12.987Z,12.90
2023-04-16T11:45:53.334Z,12.90
2023-04-16T11:48:20.141Z,12.90
2023-04-16T11:50:58.060Z,12.90
2023-04-16T11:53:25.831Z,12.90
2023-04-16T11:55:52.678Z,12.90
2023-04-16T11:58:20.101Z,13.00
2023-04-16T12:00:48.883Z,13.00
2023-04-16T12:03:16.096Z,13.00
2023-04-16T12:05:43.213Z,13.00
2023-04-16T12:08:11.831Z,13.00
2023-04-16T12:10:54.697Z,13.00
2023-04-16T12:13:21.894Z,13.00
2023-04-16T12:15:50.980Z,13.10
2023-04-16T12:18:20.336Z,13.20
2023-04-16T12:20:47.551Z,13.30
2023-04-16T12:23:24.505Z,13.40
2023-04-16T12:25:52.220Z,13.40
2023-04-16T12:28:48.147Z,13.30
2023-04-16T12:31:15.978Z,13.30
2023-04-16T12:33:42.841Z,13.30
2023-04-16T12:36:19.542Z,13.20
2023-04-16T12:38:46.657Z,13.20
2023-04-16T12:41:13.367Z,13.10
2023-04-16T12:43:40.392Z,13.00
2023-04-16T12:46:07.211Z,12.90
2023-04-16T12:48:34.569Z,12.90
2023-04-16T12:51:01.885Z,12.90
2023-04-16T12:53:28.877Z,13.00
2023-04-16T12:55:55.889Z,13.20
2023-04-16T12:58:22.668Z,13.30
2023-04-16T13:00:49.446Z,13.50
2023-04-16T13:03:16.759Z,13.70
2023-04-16T13:05:43.706Z,13.90
2023-04-16T13:08:10.851Z,14.10
2023-04-16T13:10:38.127Z,14.40
2023-04-16T13:13:06.045Z,14.70
2023-04-16T13:15:32.837Z,14.90
2023-04-16T13:17:59.738Z,15.00
2023-04-16T13:20:26.571Z,15.10
2023-04-16T13:22:53.956Z,15.10
2023-04-16T13:25:20.672Z,15.10
2023-04-16T13:27:47.579Z,15.10
2023-04-16T13:30:14.617Z,15.00
2023-04-16T13:32:41.526Z,15.00
2023-04-16T13:35:10.381Z,14.80
2023-04-16T13:37:37.138Z,14.70
2023-04-16T13:40:04.116Z,14.60
2023-04-16T13:42:32.349Z,14.40
2023-04-16T13:44:59.148Z,14.30
2023-04-16T13:47:26.167Z,14.20
2023-04-16T13:49:52.901Z,14.10
2023-04-16T13:52:19.707Z,14.10
2023-04-16T13:54:46.648Z,14.20
2023-04-16T13:57:19.824Z,14.20
2023-04-16T13:59:46.598Z,14.20
2023-04-16T14:02:13.627Z,14.30
2023-04-16T14:04:40.580Z,14.30
2023-04-16T14:07:07.338Z,14.40
2023-04-16T14:09:34.063Z,14.40
2023-04-16T14:12:00.957Z,14.40
2023-04-16T14:14:27.950Z,14.40
2023-04-16T14:16:55.104Z,14.50
2023-04-16T14:19:22.035Z,14.50
2023-04-16T14:21:48.973Z,14.60
2023-04-16T14:24:15.775Z,14.60
2023-04-16T14:26:45.778Z,14.60
2023-04-16T14:29:12.772Z,14.60
2023-04-16T14:31:39.575Z,14.60
2023-04-16T14:34:07.589Z,14.60
2023-04-16T14:36:36.452Z,14.60
2023-04-16T14:39:03.629Z,14.60
2023-04-16T14:41:31.366Z,14.60
2023-04-16T14:43:59.518Z,14.60
2023-04-16T14:46:27.121Z,14.60
2023-04-16T14:48:53.891Z,14.50
2023-04-16T14:51:20.617Z,14.50
2023-04-16T14:53:47.496Z,14.40
2023-04-16T14:56:14.249Z,14.30
2023-04-16T14:58:42.755Z,14.20
2023-04-16T15:01:09.822Z,14.20
2023-04-16T15:03:36.827Z,14.20
2023-04-16T15:06:03.744Z,14.00
2023-04-16T15:08:30.627Z,13.90
2023-04-16T15:10:57.479Z,13.80
2023-04-16T15:13:24.258Z,13.70
2023-04-16T15:15:51.274Z,13.70
2023-04-16T15:18:18.083Z,13.70
2023-04-16T15:20:45.070Z,13.70
2023-04-16T15:23:11.926Z,13.60
2023-04-16T15:25:38.686Z,13.50
2023-04-16T15:28:06.395Z,13.50
2023-04-16T15:30:33.327Z,13.40
2023-04-16T15:33:00.377Z,13.40
2023-04-16T15:35:27.186Z,13.20
2023-04-16T15:37:55.251Z,13.10
2023-04-16T15:40:22.721Z,13.00
2023-04-16T15:42:51.403Z,13.00
2023-04-16T15:45:18.757Z,12.90
2023-04-16T15:47:51.587Z,12.80
2023-04-16T15:50:19.873Z,12.70
2023-04-16T15:52:47.509Z,12.70
2023-04-16T15:55:15.079Z,12.60
2023-04-16T15:57:41.866Z,12.60
2023-04-16T16:00:17.015Z,12.40
2023-04-16T16:02:46.752Z,12.40
2023-04-16T16:05:14.406Z,12.40
2023-04-16T16:07:41.932Z,12.50
2023-04-16T16:10:10.406Z,12.50
2023-04-16T16:12:37.663Z,12.50
2023-04-16T16:15:05.008Z,12.40
2023-04-16T16:17:32.255Z,12.40
2023-04-16T16:19:59.371Z,12.30
2023-04-16T16:22:26.326Z,12.30
2023-04-16T16:24:55.658Z,12.20
2023-04-16T16:27:22.860Z,12.20
2023-04-16T16:29:49.800Z,12.20
2023-04-16T16:32:16.658Z,12.20
2023-04-16T16:34:43.409Z,12.10
2023-04-16T16:37:10.695Z,12.00
2023-04-16T16:39:38.711Z,12.00
2023-04-16T16:42:05.994Z,11.90
2023-04-16T16:44:32.828Z,11.90
2023-04-16T16:46:59.796Z,11.80
2023-04-16T16:49:26.563Z,11.70
2023-04-16T16:51:53.291Z,11.60
2023-04-16T16:54:20.046Z,11.60
2023-04-16T16:56:47.216Z,11.50
2023-04-16T16:59:14.037Z,11.50
2023-04-16T17:01:41.061Z,11.40
2023-04-16T17:04:09.031Z,11.40
2023-04-16T17:06:36.718Z,11.40
2023-04-16T17:09:03.940Z,11.40
2023-04-16T17:11:30.946Z,11.40
2023-04-16T17:13:57.694Z,11.40
2023-04-16T17:16:24.487Z,11.40
2023-04-16T17:18:51.301Z,11.40
2023-04-16T17:21:18.193Z,11.30
2023-04-16T17:23:44.914Z,11.20
2023-04-16T17:26:11.699Z,11.20
2023-04-16T17:28:38.473Z,11.20
2023-04-16T17:31:08.272Z,11.20
2023-04-16T17:33:35.499Z,11.20
2023-04-16T17:36:02.231Z,11.10
2023-04-16T17:38:29.074Z,11.10
2023-04-16T17:40:57.135Z,11.00
2023-04-16T17:43:24.224Z,11.00
2023-04-16T17:45:51.076Z,10.90
2023-04-16T17:48:17.845Z,10.80
2023-04-16T17:50:44.694Z,10.90
2023-04-16T17:53:11.514Z,10.90
2023-04-16T17:55:38.334Z,10.90
2023-04-16T17:58:05.116Z,10.90
2023-04-16T18:00:31.919Z,10.90
2023-04-16T18:02:59.829Z,10.90
2023-04-16T18:05:27.430Z,10.90
2023-04-16T18:07:55.410Z,10.90
2023-04-16T18:10:22.343Z,10.90
2023-04-16T18:12:49.187Z,10.90
2023-04-16T18:15:16.278Z,10.90
2023-04-16T18:17:44.029Z,10.90
2023-04-16T18:20:12.589Z,10.90
2023-04-16T18:22:40.006Z,10.90
2023-04-16T18:25:07.675Z,11.00
2023-04-16T18:27:34.392Z,11.00
2023-04-16T18:30:01.300Z,11.00
2023-04-16T18:32:31.135Z,11.00
2023-04-16T18:34:58.226Z,11.10
2023-04-16T18:37:24.979Z,11.10
2023-04-16T18:39:51.753Z,11.10
2023-04-16T18:42:18.465Z,11.10
2023-04-16T18:44:51.878Z,11.10
2023-04-16T18:47:18.954Z,11.10
2023-04-16T18:49:45.768Z,11.10
2023-04-16T18:52:12.765Z,11.20
2023-04-16T18:54:40.724Z,11.20
2023-04-16T18:57:07.475Z,11.20
2023-04-16T18:59:34.207Z,11.20
2023-04-16T19:02:01.098Z,11.20
2023-04-16T19:04:27.918Z,11.10
2023-04-16T19:06:54.756Z,11.10
2023-04-16T19:09:21.544Z,11.10
2023-04-16T19:11:50.476Z,11.00
2023-04-16T19:14:17.370Z,11.00
2023-04-16T19:16:44.207Z,11.00
2023-04-16T19:19:11.330Z,11.00
2023-04-16T19:21:38.376Z,11.00
2023-04-16T19:24:05.480Z,11.00
2023-04-16T19:26:32.254Z,11.00
2023-04-16T19:28:59.581Z,11.00
2023-04-16T19:31:26.788Z,11.00
2023-04-16T19:33:53.518Z,11.10
2023-04-16T19:36:20.274Z,11.10
2023-04-16T19:38:47.028Z,11.10
2023-04-16T19:41:13.867Z,11.10
2023-04-16T19:43:40.737Z,11.00
2023-04-16T19:46:07.633Z,10.90
2023-04-16T19:48:34.583Z,10.80
2023-04-16T19:51:03.450Z,10.80
2023-04-16T19:53:30.346Z,10.80
2023-04-16T19:55:57.256Z,10.80
2023-04-16T19:58:24.200Z,10.80
2023-04-16T20:00:51.100Z,10.80
2023-04-16T20:03:17.975Z,10.80
2023-04-16T20:05:48.489Z,10.80
2023-04-16T20:08:15.766Z,10.70
2023-04-16T20:10:42.703Z,10.70
2023-04-16T20:13:11.990Z,10.60
2023-04-16T20:15:38.830Z,10.60
2023-04-16T20:18:07.518Z,10.50
2023-04-16T20:20:38.013Z,10.50
2023-04-16T20:23:05.237Z,10.50
2023-04-16T20:25:32.040Z,10.50
2023-04-16T20:27:58.832Z,10.50
2023-04-16T20:30:29.305Z,10.50
2023-04-16T20:32:56.635Z,10.50
2023-04-16T20:35:23.496Z,10.50
2023-04-16T20:37:50.220Z,10.50
2023-04-16T20:40:17.118Z,10.50
2023-04-16T20:42:46.313Z,10.50
2023-04-16T20:45:13.325Z,10.50
2023-04-16T20:47:40.209Z,10.40
2023-04-16T20:50:07.685Z,10.40
2023-04-16T20:52:34.520Z,10.40
2023-04-16T20:55:01.474Z,10.30
2023-04-16T20:57:29.648Z,10.30
2023-04-16T20:59:56.464Z,10.30
2023-04-16T21:02:24.255Z,10.30
2023-04-16T21:04:51.287Z,10.40
2023-04-16T21:07:18.124Z,10.40
2023-04-16T21:09:44.888Z,10.30
2023-04-16T21:12:11.649Z,10.30
2023-04-16T21:14:38.412Z,10.40
2023-04-16T21:17:05.141Z,10.40
2023-04-16T21:19:31.837Z,10.40
2023-04-16T21:21:58.601Z,10.40
2023-04-16T21:24:25.454Z,10.40
2023-04-16T21:26:52.333Z,10.40
2023-04-16T21:29:19.215Z,10.40
2023-04-16T21:31:46.268Z,10.40
2023-04-16T21:34:17.198Z,10.40
2023-04-16T21:36:44.547Z,10.40
2023-04-16T21:39:11.645Z,10.40
2023-04-16T21:41:38.783Z,10.40
2023-04-16T21:44:05.598Z,10.40
2023-04-16T21:46:32.412Z,10.40
2023-04-16T21:48:59.208Z,10.40
2023-04-16T21:51:28.985Z,10.30
2023-04-16T21:53:56.853Z,10.30
2023-04-16T21:56:24.356Z,10.20
2023-04-16T21:58:51.112Z,10.20
2023-04-16T22:01:17.922Z,10.10
2023-04-16T22:03:47.378Z,10.10
2023-04-16T22:06:16.574Z,10.00
2023-04-16T22:08:43.308Z,10.00
2023-04-16T22:11:10.174Z,10.00
2023-04-16T22:13:37.099Z,10.10
2023-04-16T22:16:04.056Z,10.00
2023-04-16T22:18:33.764Z,10.10
2023-04-16T22:21:01.311Z,10.10
2023-04-16T22:23:28.005Z,10.10
2023-04-16T22:25:56.016Z,10.20
2023-04-16T22:28:23.325Z,10.20
2023-04-16T22:30:50.430Z,10.20
2023-04-16T22:33:17.567Z,10.30
2023-04-16T22:35:44.445Z,10.30
2023-04-16T22:38:11.296Z,10.30
2023-04-16T22:40:38.077Z,10.20
2023-04-16T22:43:05.258Z,10.20
2023-04-16T22:45:32.005Z,10.20
2023-04-16T22:47:58.838Z,10.20
2023-04-16T22:50:25.720Z,10.10
2023-04-16T22:52:52.441Z,10.10
2023-04-16T22:55:19.388Z,10.00
2023-04-16T22:57:47.387Z,10.00
2023-04-16T23:00:17.748Z,10.00
2023-04-16T23:02:45.226Z,10.00
2023-04-16T23:05:12.231Z,10.00
2023-04-16T23:07:39.182Z,10.00
2023-04-16T23:10:08.243Z,10.10
2023-04-16T23:12:37.255Z,10.10
2023-04-16T23:15:06.353Z,10.10
2023-04-16T23:17:33.855Z,10.10
2023-04-16T23:20:00.834Z,10.10
2023-04-16T23:22:27.720Z,10.10
2023-04-16T23:24:54.623Z,10.10
2023-04-16T23:27:21.375Z,10.10
2023-04-16T23:29:48.129Z,10.10
2023-04-16T23:32:15.248Z,10.10
2023-04-16T23:34:42.099Z,10.00
2023-04-16T23:37:09.004Z,10.00
2023-04-16T23:39:35.787Z,10.10
2023-04-16T23:42:03.081Z,10.10
2023-04-16T23:44:29.880Z,10.10
2023-04-16T23:46:57.294Z,10.10
2023-04-16T23:49:24.419Z,10.10
2023-04-16T23:51:51.386Z,10.10
2023-04-16T23:54:18.381Z,10.10
2023-04-16T23:56:45.477Z,10.10
2023-04-16T23:59:12.760Z,10.10
